createdAt,value
2019-05-26T00:03:17.682Z,13.26
2019-05-26T00:06:39.748Z,13.36
2019-05-26T00:10:02.164Z,13.33
2019-05-26T00:13:24.676Z,13.39
2019-05-26T00:16:46.716Z,13.49
2019-05-26T00:20:09.960Z,13.39
2019-05-26T00:23:32.487Z,13.39
2019-05-26T00:26:55.124Z,13.35
2019-05-26T00:30:18.469Z,13.33
2019-05-26T00:33:40.507Z,13.35
2019-05-26T00:37:02.530Z,13.39
2019-05-26T00:40:26.196Z,13.43
2019-05-26T00:43:48.215Z,13.41
2019-05-26T00:47:10.272Z,13.48
2019-05-26T00:50:33.154Z,13.50
2019-05-26T00:53:55.188Z,13.42
2019-05-26T00:57:17.479Z,13.35
2019-05-26T01:00:56.887Z,13.46
2019-05-26T01:04:20.047Z,13.54
2019-05-26T01:07:42.542Z,13.54
2019-05-26T01:11:04.559Z,13.55
2019-05-26T01:14:26.617Z,13.63
2019-05-26T01:17:48.750Z,13.59
2019-05-26T01:21:11.117Z,13.70
2019-05-26T01:24:33.147Z,13.72
2019-05-26T01:27:55.282Z,13.76
2019-05-26T01:31:17.404Z,13.68
2019-05-26T01:34:39.475Z,13.71
2019-05-26T01:38:01.712Z,13.55
2019-05-26T01:41:23.772Z,13.49
2019-05-26T01:44:45.840Z,13.57
2019-05-26T01:48:07.934Z,13.64
2019-05-26T01:51:31.635Z,13.42
2019-05-26T01:54:53.709Z,13.50
2019-05-26T01:58:16.528Z,13.39
2019-05-26T02:01:38.596Z,13.50
2019-05-26T02:05:00.611Z,13.52
2019-05-26T02:08:36.580Z,13.40
2019-05-26T02:11:46.622Z,13.50
2019-05-26T02:15:09.095Z,13.45
2019-05-26T02:18:31.121Z,13.51
2019-05-26T02:21:53.246Z,13.37
2019-05-26T02:25:17.028Z,13.47
2019-05-26T02:28:41.816Z,13.37
2019-05-26T02:32:04.117Z,13.43
2019-05-26T02:35:26.893Z,13.18
2019-05-26T02:39:01.908Z,13.19
2019-05-26T02:42:15.205Z,13.31
2019-05-26T02:45:38.676Z,13.31
2019-05-26T02:49:00.738Z,13.33
2019-05-26T02:52:22.900Z,13.24
2019-05-26T02:55:45.103Z,13.18
2019-05-26T02:59:07.239Z,13.14
2019-05-26T03:02:29.460Z,13.32
2019-05-26T03:05:52.830Z,13.12
2019-05-26T03:09:23.339Z,13.16
2019-05-26T03:12:45.162Z,13.23
2019-05-26T03:16:08.067Z,13.16
2019-05-26T03:19:32.434Z,13.23
2019-05-26T03:22:57.663Z,13.26
2019-05-26T03:26:21.414Z,13.25
2019-05-26T03:29:43.451Z,13.30
2019-05-26T03:33:05.480Z,13.32
2019-05-26T03:36:27.586Z,13.40
2019-05-26T03:39:49.701Z,13.27
2019-05-26T03:43:11.762Z,13.32
2019-05-26T03:46:34.757Z,13.33
2019-05-26T03:49:56.842Z,13.30
2019-05-26T03:53:18.862Z,13.29
2019-05-26T03:56:40.948Z,13.37
2019-05-26T04:00:03.002Z,13.33
2019-05-26T04:03:25.193Z,13.44
2019-05-26T04:06:48.809Z,13.52
2019-05-26T04:10:12.471Z,13.51
2019-05-26T04:13:34.806Z,13.46
2019-05-26T04:16:58.617Z,13.30
2019-05-26T04:20:20.746Z,13.35
2019-05-26T04:23:42.826Z,13.31
2019-05-26T04:27:04.889Z,13.32
2019-05-26T04:30:27.362Z,13.38
2019-05-26T04:33:49.436Z,13.52
2019-05-26T04:37:11.475Z,13.58
2019-05-26T04:40:33.568Z,13.58
2019-05-26T04:43:55.654Z,13.50
2019-05-26T04:47:17.951Z,13.62
2019-05-26T04:50:39.972Z,13.73
2019-05-26T04:54:02.465Z,13.82
2019-05-26T04:57:24.493Z,13.73
2019-05-26T05:00:46.538Z,13.57
2019-05-26T05:04:08.569Z,13.62
2019-05-26T05:07:30.879Z,13.66
2019-05-26T05:10:52.957Z,13.68
2019-05-26T05:14:15.474Z,13.62
2019-05-26T05:17:37.544Z,13.69
2019-05-26T05:20:59.575Z,13.82
2019-05-26T05:24:21.698Z,13.73
2019-05-26T05:27:43.770Z,13.59
2019-05-26T05:31:05.873Z,13.64
2019-05-26T05:34:29.571Z,13.61
2019-05-26T05:37:51.682Z,13.77
2019-05-26T05:41:16.380Z,13.73
2019-05-26T05:44:38.523Z,13.73
2019-05-26T05:48:00.744Z,13.97
2019-05-26T05:51:22.817Z,13.95
2019-05-26T05:54:44.924Z,13.94
2019-05-26T05:58:07.126Z,14.08
2019-05-26T06:01:29.196Z,14.09
2019-05-26T06:04:51.243Z,14.17
2019-05-26T06:08:13.778Z,14.19
2019-05-26T06:11:35.854Z,14.57
2019-05-26T06:14:57.911Z,14.49
2019-05-26T06:18:19.998Z,14.52
2019-05-26T06:21:45.758Z,14.61
2019-05-26T06:25:07.891Z,14.54
2019-05-26T06:28:29.989Z,14.65
2019-05-26T06:31:55.377Z,14.59
2019-05-26T06:35:17.945Z,14.45
2019-05-26T06:38:43.444Z,14.42
2019-05-26T06:42:06.279Z,14.61
2019-05-26T06:45:28.847Z,14.31
2019-05-26T06:48:51.616Z,14.53
2019-05-26T06:52:16.857Z,14.51
2019-05-26T06:55:39.216Z,14.66
2019-05-26T06:59:02.954Z,14.75
2019-05-26T07:02:27.975Z,14.82
2019-05-26T11:31:24.896Z,22.09
2019-05-26T11:34:41.521Z,22.11
2019-05-26T11:37:59.210Z,22.39
2019-05-26T11:41:15.775Z,22.17
2019-05-26T11:44:32.308Z,22.18
2019-05-26T11:47:49.516Z,22.14
2019-05-26T11:51:06.518Z,22.10
2019-05-26T11:54:23.637Z,22.00
2019-05-26T11:57:43.625Z,21.97
2019-05-26T12:01:00.266Z,21.98
2019-05-26T12:04:16.874Z,21.92
2019-05-26T12:07:33.435Z,22.12
2019-05-26T12:10:50.285Z,21.94
2019-05-26T12:14:11.909Z,21.93
2019-05-26T12:17:28.515Z,21.92
2019-05-26T12:20:45.025Z,21.93
2019-05-26T12:24:01.699Z,22.17
2019-05-26T12:31:41.559Z,21.98
2019-05-26T12:34:58.122Z,21.65
2019-05-26T12:38:18.602Z,21.91
2019-05-26T12:41:37.328Z,21.95
2019-05-26T12:44:53.463Z,21.80
2019-05-26T12:48:10.184Z,22.26
2019-05-26T12:51:27.028Z,22.28
2019-05-26T12:54:43.687Z,22.51
2019-05-26T12:58:00.234Z,22.00
2019-05-26T13:01:16.938Z,22.17
2019-05-26T13:04:33.594Z,22.29
2019-05-26T13:07:50.735Z,21.99
2019-05-26T13:11:07.354Z,22.13
2019-05-26T13:14:23.992Z,22.18
2019-05-26T13:17:40.494Z,21.23
2019-05-26T13:20:57.101Z,22.52
2019-05-26T13:24:13.707Z,21.92
2019-05-26T13:27:30.425Z,22.45
2019-05-26T13:30:48.847Z,22.63
2019-05-26T13:34:05.423Z,22.48
2019-05-26T13:37:22.035Z,22.36
2019-05-26T13:40:38.692Z,21.98
2019-05-26T13:43:55.186Z,21.82
2019-05-26T13:47:25.416Z,21.91
2019-05-26T13:50:30.260Z,21.45
2019-05-26T13:53:46.823Z,21.54
2019-05-26T13:57:03.648Z,21.60
2019-05-26T14:00:22.716Z,21.64
2019-05-26T14:03:39.278Z,21.55
2019-05-26T14:06:55.832Z,22.33
2019-05-26T14:10:12.649Z,22.47
2019-05-26T14:13:29.179Z,22.69
2019-05-26T14:16:46.157Z,22.80
2019-05-26T14:20:03.361Z,22.41
2019-05-26T14:23:19.978Z,22.46
2019-05-26T14:26:36.565Z,22.34
2019-05-26T14:29:53.259Z,22.42
2019-05-26T14:33:09.958Z,22.30
2019-05-26T14:36:26.570Z,22.32
2019-05-26T14:39:43.172Z,22.42
2019-05-26T14:42:59.976Z,22.13
2019-05-26T14:46:16.602Z,22.08
2019-05-26T14:49:33.192Z,22.19
2019-05-26T14:52:49.789Z,22.53
2019-05-26T14:56:07.301Z,23.09
2019-05-26T14:59:24.079Z,22.94
2019-05-26T15:02:40.582Z,22.81
2019-05-26T15:06:05.895Z,22.79
2019-05-26T15:09:25.274Z,22.85
2019-05-26T15:12:37.247Z,22.91
2019-05-26T15:16:08.847Z,22.69
2019-05-26T15:19:14.094Z,22.64
2019-05-26T15:22:33.086Z,22.48
2019-05-26T15:25:51.618Z,22.46
2019-05-26T15:29:13.358Z,22.36
2019-05-26T15:32:29.812Z,22.40
2019-05-26T15:35:46.422Z,22.25
2019-05-26T15:39:03.125Z,22.35
2019-05-26T15:42:20.000Z,22.17
2019-05-26T15:45:39.050Z,21.85
2019-05-26T15:52:31.603Z,21.65
2019-05-26T15:55:48.833Z,21.66
2019-05-26T15:59:05.731Z,21.55
2019-05-26T16:02:22.482Z,21.34
2019-05-26T16:05:39.022Z,21.26
2019-05-26T16:08:55.829Z,21.23
2019-05-26T16:12:12.599Z,21.33
2019-05-26T16:15:29.540Z,21.35
2019-05-26T16:18:46.115Z,21.34
2019-05-26T16:22:02.827Z,21.21
2019-05-26T16:25:20.680Z,21.34
2019-05-26T16:28:42.931Z,21.31
2019-05-26T16:31:59.766Z,21.42
2019-05-26T16:35:16.898Z,21.58
2019-05-26T16:38:33.680Z,21.78
2019-05-26T16:41:51.085Z,21.72
2019-05-26T16:45:07.885Z,21.54
2019-05-26T16:48:24.605Z,21.51
2019-05-26T16:51:41.166Z,21.34
2019-05-26T16:54:58.211Z,21.24
2019-05-26T16:58:14.763Z,21.14
2019-05-26T17:01:31.645Z,21.06
2019-05-26T17:04:48.291Z,20.94
2019-05-26T17:08:04.824Z,20.85
2019-05-26T17:11:21.404Z,20.80
2019-05-26T17:14:38.968Z,20.68
2019-05-26T17:17:59.577Z,20.63
2019-05-26T17:21:22.226Z,20.61
2019-05-26T17:24:42.591Z,20.53
2019-05-26T17:28:00.481Z,20.50
2019-05-26T17:31:17.343Z,20.34
2019-05-26T17:34:41.530Z,20.18
2019-05-26T17:37:59.760Z,20.13
2019-05-26T17:41:16.482Z,20.12
2019-05-26T17:44:33.442Z,20.08
2019-05-26T17:47:50.464Z,20.03
2019-05-26T17:51:07.132Z,20.02
2019-05-26T17:54:23.828Z,19.95
2019-05-26T17:57:40.480Z,19.90
2019-05-26T18:00:57.235Z,19.83
2019-05-26T18:04:14.108Z,19.74
2019-05-26T18:07:31.121Z,19.67
2019-05-26T18:10:48.043Z,19.59
2019-05-26T18:14:04.791Z,19.53
2019-05-26T18:17:21.463Z,19.47
2019-05-26T18:20:38.137Z,19.39
2019-05-26T18:23:55.049Z,19.29
2019-05-26T18:27:12.013Z,19.21
2019-05-26T18:30:28.718Z,19.11
2019-05-26T18:33:46.201Z,19.03
2019-05-26T18:37:02.684Z,18.98
2019-05-26T18:40:19.877Z,18.92
2019-05-26T18:43:36.460Z,18.83
2019-05-26T18:46:53.788Z,18.74
2019-05-26T18:50:11.280Z,18.64
2019-05-26T18:53:29.816Z,18.56
2019-05-26T18:56:46.924Z,18.54
2019-05-26T19:00:03.983Z,18.42
2019-05-26T19:03:25.830Z,18.31
2019-05-26T19:06:42.971Z,18.19
2019-05-26T19:09:59.848Z,18.00
2019-05-26T19:13:17.145Z,18.00
2019-05-26T19:16:33.783Z,17.86
2019-05-26T19:19:53.075Z,17.87
2019-05-26T19:23:10.247Z,17.77
2019-05-26T19:26:28.378Z,17.62
2019-05-26T19:29:44.938Z,17.40
2019-05-26T19:33:01.871Z,17.35
2019-05-26T19:36:18.845Z,17.30
2019-05-26T19:39:35.552Z,17.27
2019-05-26T19:42:52.064Z,17.18
2019-05-26T19:46:09.039Z,17.06
2019-05-26T19:49:25.600Z,16.95
2019-05-26T19:52:42.192Z,16.85
2019-05-26T19:55:59.251Z,16.80
2019-05-26T19:59:17.243Z,16.81
2019-05-26T20:02:35.039Z,16.77
2019-05-26T20:05:51.777Z,16.68
2019-05-26T20:09:08.808Z,16.60
2019-05-26T20:12:26.758Z,16.55
2019-05-26T20:15:43.667Z,16.47
2019-05-26T20:19:01.514Z,16.43
2019-05-26T20:22:18.696Z,16.37
2019-05-26T20:25:35.324Z,16.33
2019-05-26T20:28:52.027Z,16.31
2019-05-26T20:32:08.695Z,16.30
2019-05-26T20:35:26.485Z,16.25
2019-05-26T20:38:43.197Z,16.32
2019-05-26T20:42:00.259Z,16.33
2019-05-26T20:45:18.446Z,16.21
2019-05-26T20:48:35.126Z,16.12
2019-05-26T20:51:51.803Z,16.15
2019-05-26T20:55:08.578Z,16.09
2019-05-26T20:58:26.183Z,16.04
2019-05-26T21:01:43.826Z,16.01
2019-05-26T21:05:07.617Z,15.96
2019-05-26T21:08:30.057Z,15.92
2019-05-26T21:11:53.831Z,15.91
2019-05-26T21:15:12.037Z,15.88
2019-05-26T21:18:28.748Z,15.87
2019-05-26T21:21:45.303Z,15.87
2019-05-26T21:25:01.920Z,15.80
2019-05-26T21:28:23.757Z,15.74
2019-05-26T21:31:40.251Z,15.69
2019-05-26T21:34:56.907Z,15.62
2019-05-26T21:38:13.432Z,15.55
2019-05-26T21:41:29.961Z,15.46
2019-05-26T21:44:46.508Z,15.38
2019-05-26T21:48:03.042Z,15.33
2019-05-26T21:51:20.298Z,15.24
2019-05-26T21:54:41.317Z,15.10
2019-05-26T21:57:58.010Z,14.98
2019-05-26T22:01:14.724Z,14.85
2019-05-26T22:04:31.292Z,14.74
2019-05-26T22:07:47.833Z,14.63
2019-05-26T22:11:04.707Z,14.56
2019-05-26T22:14:21.226Z,14.52
2019-05-26T22:17:37.828Z,14.44
2019-05-26T22:20:54.436Z,14.41
2019-05-26T22:24:10.985Z,14.39
2019-05-26T22:27:31.659Z,14.41
2019-05-26T22:30:48.341Z,14.46
2019-05-26T22:34:06.041Z,14.33
2019-05-26T22:37:22.644Z,14.30
2019-05-26T22:40:39.293Z,14.22
2019-05-26T22:43:55.793Z,14.08
2019-05-26T22:47:13.444Z,13.94
2019-05-26T22:50:30.546Z,13.96
2019-05-26T22:53:47.072Z,13.93
2019-05-26T22:57:03.582Z,13.80
2019-05-26T23:00:21.827Z,13.69
2019-05-26T23:03:38.348Z,13.68
2019-05-26T23:06:54.902Z,13.61
2019-05-26T23:10:12.200Z,13.61
2019-05-26T23:13:29.254Z,13.60
2019-05-26T23:16:45.881Z,13.44
2019-05-26T23:20:02.611Z,13.32
2019-05-26T23:23:19.108Z,13.38
2019-05-26T23:26:35.645Z,13.30
2019-05-26T23:29:52.210Z,13.15
2019-05-26T23:33:08.705Z,13.10
2019-05-26T23:36:29.625Z,13.13
2019-05-26T23:39:46.117Z,12.99
2019-05-26T23:43:02.716Z,12.89
2019-05-26T23:46:19.182Z,12.85
2019-05-26T23:49:35.749Z,12.75
2019-05-26T23:52:52.280Z,12.66
2019-05-26T23:56:08.809Z,12.65
2019-05-26T23:59:27.529Z,12.56
